Time;durP1;ratioP1;P1;durP2;ratioP2;P2;SDS_P1;SDS_P2;PMS_P1;PMS_P2;Temp;Humidity;BMP_temperature;BMP_pressure;BME280_temperature;BME280_humidity;BME280_pressure;Samples;Min_cycle;Max_cycle;Signal;HPM_P1;HPM_P2
2023/10/14 00:01:28;;;;;;;1.38;0.50;;;13.00;99.90;;;;;;5012280;28;20159;-80
2023/10/14 00:03:57;;;;;;;1.30;0.55;;;12.90;99.90;;;;;;5013752;28;20049;-80
2023/10/14 00:06:24;;;;;;;0.80;0.50;;;12.90;99.90;;;;;;5012089;28;20486;-80
2023/10/14 00:08:57;;;;;;;1.17;0.45;;;12.90;99.90;;;;;;4996013;28;20046;-79
2023/10/14 00:11:43;;;;;;;1.83;0.60;;;12.80;99.90;;;;;;4995709;28;20494;-79
2023/10/14 00:14:15;;;;;;;3.15;0.50;;;12.80;99.90;;;;;;5012505;28;20050;-79
2023/10/14 00:16:42;;;;;;;1.75;0.60;;;12.80;99.90;;;;;;5011257;28;20112;-80
2023/10/14 00:19:09;;;;;;;1.63;0.50;;;12.80;99.90;;;;;;5012281;28;20064;-79
2023/10/14 00:21:36;;;;;;;1.20;0.40;;;12.80;99.90;;;;;;5012903;28;20045;-78
2023/10/14 00:24:06;;;;;;;1.02;0.40;;;12.80;99.90;;;;;;5011835;28;20050;-78
2023/10/14 00:26:32;;;;;;;1.13;0.80;;;12.80;99.90;;;;;;5011701;28;20141;-78
2023/10/14 00:31:45;;;;;;;0.98;0.50;;;12.90;99.90;;;;;;5012736;28;20398;-78
2023/10/14 00:34:11;;;;;;;1.05;0.60;;;12.80;99.90;;;;;;5011909;28;20050;-78
2023/10/14 00:36:36;;;;;;;1.58;0.50;;;12.80;99.90;;;;;;5011539;28;20102;-78
2023/10/14 00:39:12;;;;;;;1.52;0.57;;;12.80;99.90;;;;;;5011791;28;20054;-78
2023/10/14 00:41:44;;;;;;;1.10;0.50;;;12.80;99.90;;;;;;5011864;28;20137;-78
2023/10/14 00:44:13;;;;;;;2.20;0.70;;;12.90;99.90;;;;;;5013532;28;20050;-77
2023/10/14 00:46:42;;;;;;;3.83;0.85;;;12.90;99.90;;;;;;5011513;28;20077;-78
2023/10/14 00:49:11;;;;;;;2.08;0.70;;;12.90;99.90;;;;;;5012368;28;20148;-77
2023/10/14 00:51:43;;;;;;;1.90;0.80;;;12.90;99.90;;;;;;4974068;28;1102611;-78
2023/10/14 00:54:18;;;;;;;2.17;0.68;;;12.90;99.90;;;;;;5012897;28;20045;-77
2023/10/14 00:56:45;;;;;;;2.75;0.68;;;12.90;99.90;;;;;;5013339;28;20094;-76
2023/10/14 00:59:11;;;;;;;3.30;0.90;;;12.90;99.90;;;;;;5012317;28;20120;-76
2023/10/14 01:01:55;;;;;;;2.58;0.70;;;12.90;99.90;;;;;;5012245;28;20141;-77
2023/10/14 01:04:31;;;;;;;3.35;0.80;;;12.90;99.90;;;;;;5012566;28;20496;-76
2023/10/14 01:12:16;;;;;;;4.00;0.95;;;12.80;99.90;;;;;;5013230;28;20054;-78
2023/10/14 01:14:46;;;;;;;2.85;0.70;;;12.70;99.90;;;;;;5012729;28;20056;-77
2023/10/14 01:17:29;;;;;;;3.85;0.75;;;12.60;99.90;;;;;;5013344;28;20103;-77
2023/10/14 01:22:50;;;;;;;5.57;1.20;;;12.50;99.90;;;;;;5012062;28;20108;-77
2023/10/14 01:25:16;;;;;;;3.17;0.93;;;12.40;99.90;;;;;;5013131;28;20054;-77
2023/10/14 01:27:45;;;;;;;5.43;1.17;;;12.40;99.90;;;;;;5014486;28;20048;-78
2023/10/14 01:30:18;;;;;;;4.93;1.10;;;12.40;99.90;;;;;;5016754;28;20062;-77
2023/10/14 01:35:24;;;;;;;6.85;1.48;;;12.30;99.90;;;;;;5016450;28;20060;-78
2023/10/14 01:37:55;;;;;;;4.38;1.33;;;12.30;99.90;;;;;;5016475;28;20061;-78
2023/10/14 01:40:48;;;;;;;3.90;0.90;;;12.30;99.90;;;;;;5016512;28;20129;-78
2023/10/14 01:43:15;;;;;;;3.28;0.90;;;12.20;99.90;;;;;;5015535;28;20553;-77
2023/10/14 01:48:25;;;;;;;8.35;1.77;;;12.00;99.90;;;;;;5015745;28;20058;-77
2023/10/14 01:50:55;;;;;;;6.82;1.48;;;11.90;99.90;;;;;;5016064;28;20061;-77
2023/10/14 01:53:26;;;;;;;5.53;1.63;;;11.90;99.90;;;;;;4983183;28;20368;-77
2023/10/14 01:55:54;;;;;;;3.90;1.10;;;11.80;99.90;;;;;;5016296;28;20049;-78
2023/10/14 01:58:30;;;;;;;6.10;1.17;;;11.80;99.90;;;;;;5015161;28;20104;-78
2023/10/14 02:03:41;;;;;;;6.68;1.08;;;11.60;99.90;;;;;;5048531;28;19929;-79
2023/10/14 02:06:11;;;;;;;4.65;1.25;;;11.50;99.90;;;;;;4998914;28;20053;-78
2023/10/14 02:08:38;;;;;;;4.53;1.15;;;11.40;99.90;;;;;;4999553;28;20073;-78
2023/10/14 02:11:04;;;;;;;3.85;1.20;;;11.40;99.90;;;;;;5014776;28;20132;-78
2023/10/14 02:13:30;;;;;;;5.05;1.23;;;11.30;99.90;;;;;;5014859;28;20132;-78
2023/10/14 02:15:59;;;;;;;6.38;1.30;;;11.30;99.90;;;;;;4998911;28;20141;-77
2023/10/14 02:18:25;;;;;;;5.30;1.20;;;11.20;99.90;;;;;;5015141;28;20435;-77
2023/10/14 02:21:05;;;;;;;3.10;1.13;;;11.20;99.90;;;;;;4998471;28;20057;-78
2023/10/14 02:23:45;;;;;;;4.97;1.10;;;11.10;99.90;;;;;;5015544;28;20041;-79
2023/10/14 02:26:27;;;;;;;5.50;1.17;;;11.10;99.90;;;;;;5014576;28;20485;-78
2023/10/14 02:28:54;;;;;;;4.68;1.17;;;11.10;99.90;;;;;;5015520;28;20053;-78
2023/10/14 02:33:54;;;;;;;4.35;1.15;;;11.20;99.90;;;;;;5014373;28;20068;-78
2023/10/14 02:36:20;;;;;;;7.38;1.00;;;11.20;99.90;;;;;;5015476;28;20048;-78
2023/10/14 02:38:53;;;;;;;6.32;1.13;;;11.20;99.90;;;;;;5013448;28;20472;-79
2023/10/14 02:41:26;;;;;;;5.55;1.30;;;11.20;99.90;;;;;;5015357;28;20108;-79
2023/10/14 02:44:28;;;;;;;7.13;1.27;;;11.10;99.90;;;;;;5015311;28;20045;-78
2023/10/14 02:46:54;;;;;;;5.10;1.15;;;11.10;99.90;;;;;;5001104;28;20050;-78
2023/10/14 02:49:24;;;;;;;3.53;1.10;;;11.10;99.90;;;;;;5015148;28;20093;-77
2023/10/14 02:51:52;;;;;;;4.78;1.00;;;11.00;99.90;;;;;;5014040;28;20593;-78
2023/10/14 02:54:27;;;;;;;4.97;1.13;;;11.00;99.90;;;;;;5014979;28;20077;-78
2023/10/14 02:57:00;;;;;;;3.50;0.93;;;11.00;99.90;;;;;;5014401;28;20558;-78
2023/10/14 02:59:43;;;;;;;5.70;1.27;;;11.00;99.90;;;;;;4997913;28;20363;-79
2023/10/14 03:07:21;;;;;;;3.53;1.10;;;10.90;99.90;;;;;;5014928;28;20218;-78
2023/10/14 03:09:47;;;;;;;5.45;1.40;;;10.80;99.90;;;;;;5014521;28;20050;-78
2023/10/14 03:12:18;;;;;;;4.35;1.00;;;10.80;99.90;;;;;;5016688;28;20050;-78
2023/10/14 03:14:48;;;;;;;6.32;1.40;;;10.80;99.90;;;;;;5016293;28;20112;-78
2023/10/14 03:18:18;;;;;;;4.85;1.48;;;10.80;99.90;;;;;;5014911;28;20122;-78
2023/10/14 03:23:12;;;;;;;5.68;1.40;;;10.70;99.90;;;;;;5014485;28;20046;-77
2023/10/14 03:25:39;;;;;;;8.35;1.73;;;10.70;99.90;;;;;;5014222;28;20046;-77
2023/10/14 03:30:37;;;;;;;5.53;1.52;;;10.60;99.90;;;;;;5014197;28;20439;-77
2023/10/14 03:33:10;;;;;;;5.55;1.73;;;10.50;99.90;;;;;;5014487;28;20144;-78
2023/10/14 03:35:37;;;;;;;5.85;1.58;;;10.50;99.90;;;;;;5014327;28;20435;-77
2023/10/14 03:41:02;;;;;;;5.90;1.30;;;10.40;99.90;;;;;;4983554;28;20061;-79
2023/10/14 03:43:28;;;;;;;2.20;1.10;;;10.40;99.90;;;;;;4999484;28;20089;-78
2023/10/14 03:46:02;;;;;;;5.93;1.38;;;10.40;99.90;;;;;;5012956;28;20129;-78
2023/10/14 03:48:34;;;;;;;5.95;1.40;;;10.40;99.90;;;;;;5013620;28;20053;-78
2023/10/14 03:51:03;;;;;;;3.63;1.08;;;10.40;99.90;;;;;;5013433;28;20459;-78
2023/10/14 03:53:32;;;;;;;4.95;1.50;;;10.30;99.90;;;;;;5013824;28;20503;-78
2023/10/14 03:56:00;;;;;;;3.17;1.30;;;10.30;99.90;;;;;;4997550;28;20100;-79
2023/10/14 03:58:33;;;;;;;5.75;1.60;;;10.30;99.90;;;;;;5012473;28;20507;-77
2023/10/14 04:01:02;;;;;;;5.68;1.70;;;10.20;99.90;;;;;;5013974;28;20049;-79
2023/10/14 04:03:40;;;;;;;5.68;1.40;;;10.20;99.90;;;;;;5014025;28;20045;-78
2023/10/14 04:06:09;;;;;;;5.43;1.20;;;10.20;99.90;;;;;;4996368;28;20057;-78
2023/10/14 04:08:50;;;;;;;7.80;1.35;;;10.10;99.90;;;;;;5013886;28;20057;-79
2023/10/14 04:11:25;;;;;;;6.25;1.40;;;10.10;99.90;;;;;;5013024;28;20085;-78
2023/10/14 04:14:00;;;;;;;6.40;1.13;;;10.10;99.90;;;;;;5013778;28;20053;-79
2023/10/14 04:16:37;;;;;;;6.03;1.15;;;10.10;99.90;;;;;;5014490;28;20144;-79
2023/10/14 04:19:19;;;;;;;5.22;1.80;;;10.00;99.90;;;;;;4997893;28;20058;-79
2023/10/14 04:21:53;;;;;;;4.88;1.38;;;10.00;99.90;;;;;;4996523;28;20045;-79
2023/10/14 04:24:27;;;;;;;6.75;1.67;;;10.00;99.90;;;;;;5013408;28;20050;-79
2023/10/14 04:27:11;;;;;;;8.48;1.20;;;9.90;99.90;;;;;;5013559;28;20104;-79
2023/10/14 04:29:37;;;;;;;4.57;1.30;;;9.90;99.90;;;;;;4996744;28;20076;-80
2023/10/14 04:32:14;;;;;;;4.80;1.30;;;9.90;99.90;;;;;;4996503;28;20049;-79
2023/10/14 04:34:46;;;;;;;5.72;1.50;;;9.90;99.90;;;;;;5013608;28;20414;-78
2023/10/14 04:37:19;;;;;;;8.50;1.25;;;9.90;99.90;;;;;;5013771;28;20088;-79
2023/10/14 04:39:45;;;;;;;7.35;1.20;;;9.90;99.90;;;;;;5012362;28;20064;-79
2023/10/14 04:44:59;;;;;;;3.22;1.00;;;10.00;99.90;;;;;;4997430;28;20399;-79
2023/10/14 04:47:38;;;;;;;4.15;1.35;;;10.00;99.90;;;;;;4996949;28;20447;-80
2023/10/14 04:50:14;;;;;;;7.53;1.40;;;10.10;99.90;;;;;;5013402;28;20050;-79
2023/10/14 04:52:41;;;;;;;6.97;1.40;;;10.10;99.90;;;;;;5011958;28;20053;-79
2023/10/14 04:55:21;;;;;;;9.77;1.38;;;10.10;99.90;;;;;;5012823;28;20097;-80
2023/10/14 04:58:05;;;;;;;4.50;1.10;;;10.10;99.90;;;;;;5013357;28;20038;-79
2023/10/14 05:00:41;;;;;;;5.95;1.45;;;10.00;99.90;;;;;;5013370;28;20046;-80
2023/10/14 05:03:24;;;;;;;6.78;1.27;;;10.10;99.90;;;;;;5014954;28;20049;-80
2023/10/14 05:05:56;;;;;;;6.97;1.90;;;10.00;99.90;;;;;;5016549;28;20085;-79
2023/10/14 05:08:26;;;;;;;4.43;0.95;;;10.00;99.90;;;;;;5000571;28;20100;-80
2023/10/14 05:10:53;;;;;;;6.05;1.30;;;10.00;99.90;;;;;;5016051;28;20088;-80
2023/10/14 05:13:33;;;;;;;5.45;1.05;;;10.00;99.90;;;;;;5016805;28;20459;-79
2023/10/14 05:18:58;;;;;;;6.05;1.25;;;9.90;99.90;;;;;;5016852;28;20061;-80
2023/10/14 05:21:36;;;;;;;3.78;1.13;;;9.90;99.90;;;;;;5016185;28;20072;-80
2023/10/14 05:24:12;;;;;;;7.18;1.30;;;9.80;99.90;;;;;;4999926;28;20054;-79
2023/10/14 05:26:48;;;;;;;3.70;1.07;;;9.80;99.90;;;;;;5017335;28;20042;-79
2023/10/14 05:29:17;;;;;;;6.55;1.50;;;9.80;99.90;;;;;;5015835;28;20083;-79
2023/10/14 05:31:47;;;;;;;7.40;1.52;;;9.70;99.90;;;;;;5016715;28;20133;-80
2023/10/14 05:34:17;;;;;;;6.47;1.50;;;9.80;99.90;;;;;;5015534;28;20085;-80
2023/10/14 05:36:44;;;;;;;8.45;1.58;;;9.70;99.90;;;;;;5016320;28;20553;-79
2023/10/14 05:39:10;;;;;;;10.63;1.63;;;9.70;99.90;;;;;;5015808;28;20132;-80
2023/10/14 05:41:38;;;;;;;5.25;1.33;;;9.70;99.90;;;;;;5015796;28;20465;-80
2023/10/14 05:44:05;;;;;;;5.18;1.40;;;9.70;99.90;;;;;;5016430;28;20129;-79
2023/10/14 05:46:31;;;;;;;6.63;1.40;;;9.70;99.90;;;;;;5015377;28;20137;-79
2023/10/14 05:48:57;;;;;;;6.53;1.27;;;9.70;99.90;;;;;;5016067;28;20137;-80
2023/10/14 05:51:23;;;;;;;5.80;1.17;;;9.70;99.90;;;;;;5016269;28;20080;-79
2023/10/14 05:53:52;;;;;;;4.30;0.95;;;9.70;99.90;;;;;;5014833;28;20568;-79
2023/10/14 05:56:18;;;;;;;5.75;1.20;;;9.60;99.90;;;;;;5015880;28;20046;-80
2023/10/14 05:58:46;;;;;;;8.02;1.77;;;9.60;99.90;;;;;;5014888;28;20050;-79
2023/10/14 06:01:16;;;;;;;7.20;1.27;;;9.60;99.90;;;;;;4998875;28;20049;-80
2023/10/14 06:03:42;;;;;;;4.03;1.88;;;9.60;99.90;;;;;;5014885;28;20080;-79
2023/10/14 06:06:14;;;;;;;6.35;1.40;;;9.60;99.90;;;;;;5016227;28;20046;-80
2023/10/14 06:08:41;;;;;;;6.22;1.02;;;9.50;99.90;;;;;;5016001;28;20248;-79
2023/10/14 06:11:07;;;;;;;4.50;1.20;;;9.50;99.90;;;;;;5014813;28;20099;-80
2023/10/14 06:13:34;;;;;;;4.43;1.27;;;9.50;99.90;;;;;;4999191;28;20597;-80
2023/10/14 06:16:06;;;;;;;5.50;1.50;;;9.40;99.90;;;;;;5014661;28;20045;-79
2023/10/14 06:18:32;;;;;;;5.30;1.20;;;9.40;99.90;;;;;;5015918;28;20042;-79
2023/10/14 06:20:59;;;;;;;7.88;1.60;;;9.40;99.90;;;;;;5014886;28;20156;-80
2023/10/14 06:23:28;;;;;;;3.83;1.00;;;9.40;99.90;;;;;;5015124;28;20049;-80
2023/10/14 06:25:55;;;;;;;4.95;1.35;;;9.30;99.90;;;;;;5015041;28;20057;-80
2023/10/14 06:28:21;;;;;;;5.25;1.52;;;9.40;99.90;;;;;;4998208;28;20128;-79
2023/10/14 06:30:47;;;;;;;5.00;1.23;;;9.30;99.90;;;;;;4982070;28;20471;-79
2023/10/14 06:33:13;;;;;;;4.55;1.20;;;9.30;99.90;;;;;;5015523;28;20557;-79
2023/10/14 06:35:44;;;;;;;9.10;1.52;;;9.30;99.90;;;;;;5016097;28;20045;-79
2023/10/14 06:38:17;;;;;;;7.55;1.25;;;9.30;99.90;;;;;;5014895;28;20046;-79
2023/10/14 06:40:52;;;;;;;4.70;1.33;;;9.30;99.90;;;;;;5015339;28;20062;-80
2023/10/14 06:43:19;;;;;;;5.43;1.40;;;9.30;99.90;;;;;;5014789;28;20132;-79
2023/10/14 06:45:46;;;;;;;4.03;1.15;;;9.30;99.90;;;;;;4998888;28;20060;-79
2023/10/14 06:48:12;;;;;;;6.28;1.15;;;9.30;99.90;;;;;;5013766;28;20557;-79
2023/10/14 06:50:41;;;;;;;5.38;1.38;;;9.30;99.90;;;;;;5015579;28;20050;-81
2023/10/14 06:53:09;;;;;;;6.45;1.35;;;9.30;99.90;;;;;;5015998;28;20141;-80
2023/10/14 06:55:42;;;;;;;4.85;1.30;;;9.40;99.90;;;;;;5013729;28;20491;-80
2023/10/14 06:58:11;;;;;;;6.30;1.42;;;9.40;99.90;;;;;;5015032;28;20038;-80
2023/10/14 07:00:40;;;;;;;7.45;1.38;;;9.50;99.90;;;;;;5015539;28;20054;-80
2023/10/14 07:03:12;;;;;;;4.88;1.20;;;9.50;99.90;;;;;;5013880;28;20410;-79
2023/10/14 07:05:48;;;;;;;5.22;1.30;;;9.60;99.90;;;;;;4997929;28;20049;-80
2023/10/14 07:08:21;;;;;;;13.38;2.03;;;9.60;99.90;;;;;;5013215;28;20057;-67
2023/10/14 07:10:50;;;;;;;3.45;1.00;;;9.70;99.90;;;;;;5014219;28;20061;-67
2023/10/14 07:13:22;;;;;;;5.63;1.35;;;9.80;99.90;;;;;;5014861;28;20383;-67
2023/10/14 07:15:49;;;;;;;7.45;1.50;;;9.90;99.90;;;;;;5014966;28;20390;-67
2023/10/14 07:18:22;;;;;;;4.50;1.38;;;9.90;99.90;;;;;;5014587;28;20054;-67
2023/10/14 07:21:04;;;;;;;8.93;1.30;;;10.00;99.90;;;;;;5015213;28;20050;-67
2023/10/14 07:23:34;;;;;;;4.75;1.13;;;10.00;99.90;;;;;;5014708;28;20570;-67
2023/10/14 07:26:09;;;;;;;8.02;1.40;;;10.20;99.90;;;;;;5014393;28;20057;-67
2023/10/14 07:28:36;;;;;;;8.52;1.40;;;10.20;99.90;;;;;;5014366;28;20544;-67
2023/10/14 07:31:02;;;;;;;4.45;1.08;;;10.30;99.90;;;;;;5014607;28;20046;-67
2023/10/14 07:33:29;;;;;;;6.32;1.92;;;10.40;99.90;;;;;;5015021;28;20068;-67
2023/10/14 07:35:58;;;;;;;4.45;1.20;;;10.40;99.90;;;;;;5014442;28;20045;-67
2023/10/14 07:38:24;;;;;;;8.80;1.40;;;10.50;99.90;;;;;;5014030;28;20517;-67
2023/10/14 07:40:50;;;;;;;6.47;1.20;;;10.60;99.90;;;;;;5014756;28;20054;-67
2023/10/14 07:43:16;;;;;;;4.78;1.38;;;10.70;99.90;;;;;;5014294;28;20045;-67
2023/10/14 07:45:44;;;;;;;5.05;1.38;;;10.80;99.90;;;;;;5014752;28;20382;-68
2023/10/14 07:48:13;;;;;;;7.93;1.60;;;10.90;99.90;;;;;;5014172;28;20506;-67
2023/10/14 07:50:40;;;;;;;8.57;2.08;;;10.90;99.90;;;;;;5013965;28;20050;-67
2023/10/14 07:53:07;;;;;;;5.47;1.40;;;11.00;99.90;;;;;;5014207;28;20056;-67
2023/10/14 07:55:40;;;;;;;8.43;1.70;;;11.10;99.90;;;;;;5013772;28;20478;-67
2023/10/14 07:58:08;;;;;;;4.90;1.17;;;11.20;99.90;;;;;;5014017;28;20084;-67
2023/10/14 08:00:48;;;;;;;6.63;1.27;;;11.30;99.90;;;;;;5013944;28;20494;-67
2023/10/14 08:03:16;;;;;;;7.72;1.52;;;11.40;99.90;;;;;;5014305;28;20483;-67
2023/10/14 08:05:48;;;;;;;6.05;1.15;;;11.40;99.90;;;;;;5013658;28;20046;-68
2023/10/14 08:08:14;;;;;;;8.43;1.75;;;11.50;99.90;;;;;;5013927;28;20394;-70
2023/10/14 08:10:45;;;;;;;10.07;1.60;;;11.60;99.90;;;;;;5013340;28;20142;-67
2023/10/14 08:13:12;;;;;;;5.90;1.58;;;11.70;99.90;;;;;;5014112;28;20510;-67
2023/10/14 08:15:38;;;;;;;9.25;1.70;;;11.70;99.90;;;;;;5013720;28;20052;-68
2023/10/14 08:18:05;;;;;;;6.30;1.63;;;11.80;99.90;;;;;;5013743;28;20034;-67
2023/10/14 08:20:35;;;;;;;6.95;1.35;;;11.90;99.90;;;;;;5013259;28;20570;-67
2023/10/14 08:23:02;;;;;;;5.03;1.20;;;12.00;99.90;;;;;;5013650;28;20212;-67
2023/10/14 08:25:30;;;;;;;7.35;1.50;;;12.10;99.90;;;;;;5013741;28;20046;-67
2023/10/14 08:27:57;;;;;;;7.75;1.70;;;12.10;99.90;;;;;;5012670;28;20056;-68
2023/10/14 08:30:32;;;;;;;6.60;1.80;;;12.20;99.90;;;;;;5013609;28;20104;-67
2023/10/14 08:32:58;;;;;;;9.23;1.50;;;12.30;99.90;;;;;;5014338;28;20089;-68
2023/10/14 08:35:27;;;;;;;7.57;1.60;;;12.40;99.90;;;;;;5013446;28;20104;-67
2023/10/14 08:37:54;;;;;;;5.72;1.73;;;12.50;99.90;;;;;;5014251;28;20050;-68
2023/10/14 08:40:26;;;;;;;6.05;1.60;;;12.50;99.90;;;;;;5017379;28;20081;-67
2023/10/14 08:43:05;;;;;;;4.20;1.00;;;12.60;99.90;;;;;;5017439;28;20069;-67
2023/10/14 08:45:38;;;;;;;5.63;1.35;;;12.60;99.90;;;;;;5018106;28;20046;-68
2023/10/14 08:48:05;;;;;;;6.95;1.30;;;12.70;99.90;;;;;;5017849;28;20077;-68
2023/10/14 08:50:35;;;;;;;8.50;1.60;;;12.70;99.90;;;;;;5015769;28;20062;-68
2023/10/14 08:53:06;;;;;;;5.38;1.60;;;12.70;99.90;;;;;;5018059;28;20089;-68
2023/10/14 08:55:37;;;;;;;6.72;1.30;;;12.80;99.90;;;;;;5017843;28;20125;-68
2023/10/14 08:58:06;;;;;;;5.63;1.13;;;13.00;99.90;;;;;;5017167;28;20050;-68
2023/10/14 09:00:36;;;;;;;3.80;1.20;;;13.00;99.90;;;;;;5017802;28;20046;-67
2023/10/14 09:03:07;;;;;;;5.35;1.42;;;13.10;99.90;;;;;;5017153;28;20107;-67
2023/10/14 09:05:44;;;;;;;7.53;1.40;;;13.10;99.90;;;;;;5017222;28;20151;-67
2023/10/14 09:08:14;;;;;;;9.10;1.88;;;13.10;99.90;;;;;;5015817;28;20046;-69
2023/10/14 09:10:40;;;;;;;7.13;1.45;;;13.20;99.90;;;;;;5017003;28;20050;-67
2023/10/14 09:13:08;;;;;;;5.53;1.23;;;13.30;99.90;;;;;;5016974;28;20038;-67
2023/10/14 09:15:40;;;;;;;6.00;1.70;;;13.30;99.90;;;;;;5015904;28;20061;-67
2023/10/14 09:18:18;;;;;;;6.88;1.58;;;13.40;99.90;;;;;;5017457;28;20049;-67
2023/10/14 09:20:45;;;;;;;4.45;1.45;;;13.30;99.90;;;;;;5016697;28;20050;-67
2023/10/14 09:23:17;;;;;;;7.53;1.50;;;13.20;99.90;;;;;;5016997;28;20049;-67
2023/10/14 09:25:50;;;;;;;5.82;1.70;;;13.40;99.90;;;;;;5017358;28;20058;-68
2023/10/14 09:28:19;;;;;;;7.40;1.70;;;13.50;99.90;;;;;;5016640;28;20124;-68
2023/10/14 09:30:45;;;;;;;5.72;1.48;;;13.60;99.90;;;;;;5015434;28;20135;-67
2023/10/14 09:33:17;;;;;;;10.50;1.73;;;13.70;99.90;;;;;;5015438;28;20081;-68
2023/10/14 09:35:48;;;;;;;5.28;1.25;;;13.70;99.90;;;;;;5017434;28;20057;-67
2023/10/14 09:38:19;;;;;;;7.55;1.42;;;14.00;99.90;;;;;;5015351;28;20053;-68
2023/10/14 09:41:14;;;;;;;6.47;1.25;;;14.30;99.90;;;;;;5015757;28;20058;-68
2023/10/14 09:43:41;;;;;;;6.40;1.20;;;14.50;99.90;;;;;;5016000;28;20061;-67
2023/10/14 09:46:17;;;;;;;6.80;1.60;;;14.70;99.90;;;;;;5016331;28;20072;-67
2023/10/14 09:48:46;;;;;;;6.82;1.63;;;14.80;99.90;;;;;;5015834;28;20053;-67
2023/10/14 09:51:15;;;;;;;4.90;1.42;;;14.80;99.90;;;;;;5016530;28;20462;-67
2023/10/14 09:53:44;;;;;;;5.57;1.20;;;14.90;99.90;;;;;;5016229;28;20041;-67
2023/10/14 09:56:13;;;;;;;6.05;1.33;;;14.90;99.90;;;;;;5016192;28;20133;-69
2023/10/14 09:58:43;;;;;;;3.38;1.10;;;14.90;99.90;;;;;;4998632;28;20085;-68
2023/10/14 10:01:12;;;;;;;4.07;1.27;;;15.00;99.90;;;;;;5016116;28;20046;-67
2023/10/14 10:03:44;;;;;;;4.85;1.17;;;15.20;99.90;;;;;;5016086;28;20042;-68
2023/10/14 10:06:35;;;;;;;5.72;1.25;;;15.20;99.90;;;;;;5016611;28;20058;-68
2023/10/14 10:09:28;;;;;;;5.63;1.08;;;15.30;99.90;;;;;;5016339;28;20060;-68
2023/10/14 10:11:57;;;;;;;7.63;1.30;;;15.40;99.90;;;;;;5015815;28;20056;-68
2023/10/14 10:14:26;;;;;;;7.72;1.52;;;15.50;99.90;;;;;;5016095;28;20398;-68
2023/10/14 10:16:56;;;;;;;5.82;1.25;;;15.60;99.90;;;;;;5015664;28;20077;-68
2023/10/14 10:19:22;;;;;;;4.28;1.42;;;15.50;99.90;;;;;;5015641;28;20464;-68
2023/10/14 10:22:17;;;;;;;3.67;1.40;;;15.50;99.90;;;;;;5015573;28;20050;-68
2023/10/14 10:24:45;;;;;;;5.00;1.30;;;15.50;99.90;;;;;;5015628;28;20204;-68
2023/10/14 10:27:12;;;;;;;4.18;1.20;;;15.50;99.90;;;;;;5015494;28;20046;-68
2023/10/14 10:29:55;;;;;;;4.28;1.05;;;15.30;99.90;;;;;;5015420;28;20045;-67
2023/10/14 10:32:23;;;;;;;6.10;1.00;;;14.90;99.90;;;;;;5016033;28;20482;-67
2023/10/14 10:35:07;;;;;;;5.00;0.93;;;14.90;99.90;;;;;;5016008;28;20045;-68
2023/10/14 10:37:52;;;;;;;4.25;1.30;;;15.10;99.90;;;;;;5015369;28;20045;-68
2023/10/14 10:40:26;;;;;;;5.63;1.37;;;15.10;99.90;;;;;;5015398;28;20050;-68
2023/10/14 10:42:56;;;;;;;5.55;1.35;;;15.00;99.90;;;;;;5016211;28;20046;-67
2023/10/14 10:45:26;;;;;;;7.03;1.13;;;15.00;99.90;;;;;;5015192;28;20402;-68
2023/10/14 10:47:54;;;;;;;7.28;1.48;;;15.10;99.90;;;;;;5015419;28;20034;-68
2023/10/14 10:50:27;;;;;;;3.45;1.38;;;15.40;99.90;;;;;;5013975;28;20483;-68
2023/10/14 10:53:16;;;;;;;6.50;1.40;;;15.50;99.90;;;;;;5015752;28;20069;-68
2023/10/14 10:55:46;;;;;;;3.70;1.30;;;15.50;99.90;;;;;;5013924;28;20088;-69
2023/10/14 10:58:13;;;;;;;5.43;1.08;;;15.60;99.90;;;;;;5015579;28;20038;-68
2023/10/14 11:00:46;;;;;;;4.15;1.15;;;15.30;99.90;;;;;;5014118;28;20090;-68
2023/10/14 11:03:14;;;;;;;4.35;1.30;;;15.00;99.90;;;;;;5015142;28;20088;-68
2023/10/14 11:05:41;;;;;;;2.42;1.10;;;14.80;99.90;;;;;;5014741;28;20054;-68
2023/10/14 11:08:08;;;;;;;5.85;1.50;;;14.80;99.90;;;;;;5014750;28;20082;-69
2023/10/14 11:10:38;;;;;;;4.28;1.52;;;14.80;99.90;;;;;;5014782;28;20041;-68
2023/10/14 11:13:07;;;;;;;5.43;1.17;;;14.80;99.90;;;;;;5014540;28;20048;-68
2023/10/14 11:15:34;;;;;;;4.22;1.13;;;15.00;99.90;;;;;;5014756;28;20410;-69
2023/10/14 11:18:01;;;;;;;5.05;1.20;;;15.00;99.90;;;;;;5014936;28;20049;-69
2023/10/14 11:20:33;;;;;;;5.10;0.95;;;13.70;99.90;;;;;;5015129;28;20046;-68
2023/10/14 11:23:00;;;;;;;2.20;0.70;;;11.60;99.90;;;;;;5014521;28;20054;-68
2023/10/14 11:25:35;;;;;;;3.90;1.08;;;10.40;99.90;;;;;;5014117;28;20402;-68
2023/10/14 11:28:01;;;;;;;2.97;0.90;;;9.80;99.90;;;;;;5014486;28;20100;-68
2023/10/14 11:30:27;;;;;;;1.60;0.90;;;9.50;99.90;;;;;;5014053;28;20121;-69
2023/10/14 11:32:53;;;;;;;4.13;1.10;;;9.50;99.90;;;;;;5014785;28;20050;-68
2023/10/14 11:35:22;;;;;;;3.10;0.80;;;9.80;99.90;;;;;;5014375;28;20097;-68
2023/10/14 11:38:00;;;;;;;5.50;0.98;;;10.00;99.90;;;;;;5014274;28;20045;-67
2023/10/14 11:40:35;;;;;;;4.20;1.00;;;10.20;99.90;;;;;;5014134;28;20046;-68
2023/10/14 11:43:01;;;;;;;4.03;0.90;;;10.30;99.90;;;;;;5014204;28;20479;-67
2023/10/14 11:45:27;;;;;;;1.60;0.70;;;10.50;99.90;;;;;;5013095;28;20054;-67
2023/10/14 11:47:53;;;;;;;5.53;1.00;;;10.60;99.90;;;;;;5013690;28;20491;-67
2023/10/14 11:50:19;;;;;;;4.00;0.90;;;10.80;99.90;;;;;;5014117;28;20085;-67
2023/10/14 11:52:48;;;;;;;2.92;0.80;;;11.00;99.90;;;;;;5015040;28;20155;-67
2023/10/14 11:55:14;;;;;;;3.67;0.82;;;11.20;99.90;;;;;;5013982;28;20049;-68
2023/10/14 11:57:44;;;;;;;5.03;1.27;;;11.40;99.90;;;;;;5014051;28;20045;-68
2023/10/14 12:00:12;;;;;;;3.97;1.45;;;11.50;99.90;;;;;;5013973;28;20088;-68
2023/10/14 12:02:40;;;;;;;4.20;1.08;;;11.60;99.90;;;;;;5014261;28;20053;-67
2023/10/14 12:05:06;;;;;;;3.83;0.93;;;11.60;99.90;;;;;;5014007;28;20107;-67
2023/10/14 12:07:32;;;;;;;6.05;1.00;;;11.70;99.90;;;;;;5013888;28;20053;-66
2023/10/14 12:10:05;;;;;;;2.67;0.98;;;11.90;99.90;;;;;;5013722;28;20053;-67
2023/10/14 12:12:31;;;;;;;7.50;1.27;;;12.20;99.90;;;;;;5013713;28;20038;-67
2023/10/14 12:14:59;;;;;;;3.10;1.55;;;12.40;99.90;;;;;;5014555;28;20050;-68
2023/10/14 12:17:25;;;;;;;4.25;1.10;;;12.70;99.90;;;;;;5013846;28;20122;-67
2023/10/14 12:19:51;;;;;;;3.58;0.85;;;12.90;99.90;;;;;;5013803;28;20061;-66
2023/10/14 12:22:17;;;;;;;3.47;0.85;;;13.00;99.90;;;;;;5013928;28;20385;-67
2023/10/14 12:24:42;;;;;;;3.60;0.80;;;13.10;99.90;;;;;;5014258;28;20148;-67
2023/10/14 12:27:13;;;;;;;3.45;1.10;;;13.20;99.90;;;;;;5013843;28;20050;-67
2023/10/14 12:29:42;;;;;;;3.25;1.00;;;13.10;99.90;;;;;;5013650;28;20125;-67
2023/10/14 12:32:17;;;;;;;2.97;0.85;;;12.80;99.90;;;;;;5013489;28;20053;-67
2023/10/14 12:34:44;;;;;;;3.78;1.23;;;12.50;99.90;;;;;;5013677;28;20053;-66
2023/10/14 12:37:24;;;;;;;4.57;1.10;;;12.30;99.90;;;;;;5013930;28;20124;-66
2023/10/14 12:40:04;;;;;;;5.03;0.90;;;12.10;99.90;;;;;;5014401;28;20391;-66
2023/10/14 12:42:50;;;;;;;5.32;0.90;;;11.90;99.90;;;;;;5014185;28;20390;-66
2023/10/14 12:45:23;;;;;;;2.85;0.80;;;11.90;99.90;;;;;;5013608;28;20054;-66
2023/10/14 12:47:49;;;;;;;3.88;0.82;;;11.90;99.90;;;;;;5013161;28;20370;-66
2023/10/14 12:50:19;;;;;;;2.45;0.73;;;12.00;99.90;;;;;;5013442;28;20050;-66
2023/10/14 12:53:04;;;;;;;3.83;0.90;;;12.10;99.90;;;;;;5014065;28;20480;-67
2023/10/14 12:55:33;;;;;;;3.13;1.00;;;12.10;99.90;;;;;;5014107;28;20144;-67
2023/10/14 12:57:59;;;;;;;4.45;1.20;;;11.90;99.90;;;;;;5013188;28;20045;-66
2023/10/14 13:00:25;;;;;;;2.75;1.10;;;11.90;99.90;;;;;;5013499;28;20045;-66
2023/10/14 13:02:53;;;;;;;5.07;1.10;;;12.00;99.90;;;;;;5014205;28;20547;-66
2023/10/14 13:05:20;;;;;;;7.40;1.25;;;12.10;99.90;;;;;;5013425;28;20060;-66
2023/10/14 13:07:52;;;;;;;8.80;1.88;;;12.20;99.90;;;;;;5013276;28;20041;-66
2023/10/14 13:10:23;;;;;;;5.15;1.55;;;12.10;99.90;;;;;;5013914;28;20447;-66
2023/10/14 13:12:56;;;;;;;3.83;1.00;;;12.10;99.90;;;;;;5013755;28;20430;-66
2023/10/14 13:15:30;;;;;;;9.63;2.08;;;11.90;99.90;;;;;;5013430;28;20049;-67
2023/10/14 13:18:04;;;;;;;6.65;1.52;;;11.90;99.90;;;;;;5014116;28;20121;-67
2023/10/14 13:20:32;;;;;;;6.07;1.48;;;12.00;99.90;;;;;;5013315;28;20050;-66
2023/10/14 13:23:03;;;;;;;3.97;1.48;;;12.10;99.90;;;;;;5013598;28;20498;-67
2023/10/14 13:25:30;;;;;;;5.85;1.20;;;12.20;99.90;;;;;;5016885;28;20046;-66
2023/10/14 13:27:55;;;;;;;5.28;1.30;;;12.20;99.90;;;;;;4999194;28;20045;-66
2023/10/14 13:30:22;;;;;;;5.45;1.40;;;12.30;99.90;;;;;;5015715;28;20045;-66
2023/10/14 13:32:55;;;;;;;5.78;1.35;;;12.30;99.90;;;;;;5016734;28;20049;-66
2023/10/14 13:35:22;;;;;;;7.30;1.23;;;12.40;99.90;;;;;;5015644;28;20089;-67
2023/10/14 13:37:48;;;;;;;8.68;1.48;;;12.40;99.90;;;;;;5016425;28;20046;-66
2023/10/14 13:40:24;;;;;;;4.07;1.50;;;12.40;99.90;;;;;;5015910;28;20049;-66
2023/10/14 13:42:51;;;;;;;3.40;1.13;;;12.50;99.90;;;;;;5016477;28;20049;-67
2023/10/14 13:45:18;;;;;;;3.25;1.08;;;12.50;99.90;;;;;;5016738;28;20379;-66
2023/10/14 13:47:45;;;;;;;6.35;1.20;;;12.50;99.90;;;;;;5017155;28;20083;-66